createdAt,value
2019-05-16T00:00:43.074Z,92.80
2019-05-16T00:03:23.684Z,93.00
2019-05-16T00:06:04.481Z,93.20
2019-05-16T00:08:47.898Z,93.60
2019-05-16T00:11:28.395Z,94.10
2019-05-16T00:14:09.734Z,95.00
2019-05-16T00:16:51.028Z,96.10
2019-05-16T00:19:31.985Z,96.80
2019-05-16T00:22:12.601Z,97.50
2019-05-16T00:24:53.515Z,98.50
2019-05-16T00:27:34.529Z,99.60
2019-05-16T00:30:15.064Z,99.90
2019-05-16T00:32:55.713Z,99.90
2019-05-16T00:35:38.839Z,99.90
2019-05-16T00:38:19.814Z,99.90
2019-05-16T00:41:01.048Z,99.90
2019-05-16T00:43:42.612Z,99.90
2019-05-16T00:46:23.944Z,99.90
2019-05-16T00:49:04.539Z,99.90
2019-05-16T00:51:45.523Z,99.90
2019-05-16T00:54:27.825Z,99.90
2019-05-16T00:57:08.735Z,99.90
2019-05-16T00:59:50.249Z,99.90
2019-05-16T01:02:31.675Z,99.90
2019-05-16T01:05:14.588Z,99.90
2019-05-16T01:07:55.508Z,99.90
2019-05-16T01:10:36.149Z,99.90
2019-05-16T01:13:18.568Z,99.90
2019-05-16T01:15:59.659Z,99.90
2019-05-16T01:18:41.018Z,99.90
2019-05-16T01:21:22.289Z,99.90
2019-05-16T01:24:03.554Z,99.90
2019-05-16T01:26:44.208Z,99.90
2019-05-16T01:29:28.082Z,99.90
2019-05-16T01:32:08.498Z,99.90
2019-05-16T01:34:49.937Z,99.90
2019-05-16T01:37:30.692Z,99.90
2019-05-16T01:40:11.494Z,99.90
2019-05-16T01:42:52.803Z,99.90
2019-05-16T01:45:34.161Z,99.90
2019-05-16T01:48:15.753Z,99.90
2019-05-16T01:50:58.404Z,99.90
2019-05-16T01:53:39.604Z,99.90
2019-05-16T01:56:20.286Z,99.90
2019-05-16T01:59:01.628Z,99.90
2019-05-16T02:01:42.297Z,99.90
2019-05-16T02:04:23.544Z,99.90
2019-05-16T02:07:04.963Z,99.90
2019-05-16T02:09:47.560Z,99.90
2019-05-16T02:12:28.113Z,99.90
2019-05-16T02:15:09.516Z,99.90
2019-05-16T02:17:50.267Z,99.90
2019-05-16T02:20:31.032Z,99.90
2019-05-16T02:23:11.583Z,99.90
2019-05-16T02:25:52.343Z,99.90
2019-05-16T02:28:39.722Z,99.90
2019-05-16T02:31:15.828Z,99.90
2019-05-16T02:33:57.121Z,99.90
2019-05-16T02:36:40.457Z,99.90
2019-05-16T02:39:21.282Z,99.90
2019-05-16T02:42:02.180Z,99.90
2019-05-16T02:44:41.735Z,99.90
2019-05-16T02:53:33.113Z,99.90
2019-05-16T02:56:21.548Z,99.90
2019-05-16T02:58:51.987Z,99.90
2019-05-16T03:01:22.056Z,99.90
2019-05-16T03:03:51.966Z,99.90
2019-05-16T03:06:22.070Z,99.90
2019-05-16T03:08:54.087Z,99.90
2019-05-16T03:11:24.632Z,99.90
2019-05-16T03:13:54.876Z,99.90
2019-05-16T03:16:26.405Z,99.90
2019-05-16T03:18:56.245Z,99.90
2019-05-16T03:21:26.702Z,99.90
2019-05-16T03:23:56.186Z,99.90
2019-05-16T03:26:25.530Z,99.90
2019-05-16T03:28:54.888Z,99.90
2019-05-16T03:31:25.361Z,99.90
2019-05-16T03:33:59.835Z,99.90
2019-05-16T03:36:26.141Z,99.90
2019-05-16T03:38:55.616Z,99.90
2019-05-16T03:41:25.059Z,99.90
2019-05-16T03:43:54.426Z,99.90
2019-05-16T03:46:23.801Z,99.90
2019-05-16T03:48:53.101Z,99.90
2019-05-16T03:51:22.485Z,99.90
2019-05-16T03:53:51.891Z,99.90
2019-05-16T03:56:22.033Z,99.90
2019-05-16T03:58:53.383Z,99.90
2019-05-16T04:01:22.733Z,99.90
2019-05-16T04:03:52.094Z,99.90
2019-05-16T04:06:22.246Z,99.90
2019-05-16T04:08:51.711Z,99.90
2019-05-16T04:11:23.236Z,99.90
2019-05-16T04:13:52.874Z,99.90
2019-05-16T04:16:22.260Z,99.90
2019-05-16T04:18:51.709Z,99.90
2019-05-16T04:21:22.044Z,99.90
2019-05-16T04:23:51.763Z,99.90
2019-05-16T04:26:21.884Z,99.90
2019-05-16T04:28:51.835Z,99.90
2019-05-16T04:31:22.254Z,99.90
2019-05-16T04:33:52.022Z,99.90
2019-05-16T04:36:23.385Z,99.90
2019-05-16T04:38:52.776Z,99.90
2019-05-16T04:41:22.108Z,99.90
2019-05-16T04:43:51.530Z,99.90
2019-05-16T04:46:21.651Z,99.90
2019-05-16T04:48:51.258Z,99.90
2019-05-16T04:51:21.862Z,99.90
2019-05-16T04:53:51.561Z,99.90
2019-05-16T04:56:21.916Z,99.90
2019-05-16T04:58:51.800Z,99.90
2019-05-16T05:01:21.724Z,99.90
2019-05-16T05:04:01.957Z,99.90
2019-05-16T05:06:22.441Z,99.90
2019-05-16T05:08:58.464Z,99.90
2019-05-16T05:11:23.010Z,99.90
2019-05-16T05:13:52.368Z,99.90
2019-05-16T05:16:21.753Z,99.90
2019-05-16T05:18:51.654Z,99.90
2019-05-16T05:21:21.397Z,99.90
2019-05-16T05:23:51.078Z,99.90
2019-05-16T05:26:20.800Z,99.70
2019-05-16T05:28:51.418Z,99.20
2019-05-16T05:31:25.153Z,98.50
2019-05-16T05:33:51.881Z,98.40
2019-05-16T05:36:21.301Z,97.80
2019-05-16T05:39:06.269Z,96.40
2019-05-16T05:41:21.841Z,95.70
2019-05-16T05:43:54.331Z,94.20
2019-05-16T05:46:22.300Z,93.20
2019-05-16T05:48:51.676Z,92.30
2019-05-16T05:51:21.167Z,90.90
2019-05-16T05:53:51.083Z,90.60
2019-05-16T05:56:20.491Z,89.60
2019-05-16T05:58:51.197Z,88.00
2019-05-16T06:01:20.855Z,87.30
2019-05-16T06:03:50.636Z,86.60
2019-05-16T06:06:21.000Z,85.60
2019-05-16T06:08:50.720Z,83.70
2019-05-16T06:11:20.497Z,83.20
2019-05-16T06:13:50.282Z,80.50
2019-05-16T06:16:20.583Z,81.20
2019-05-16T06:18:50.410Z,78.20
2019-05-16T06:21:20.434Z,77.90
2019-05-16T06:23:51.329Z,79.60
2019-05-16T06:26:20.793Z,77.20
2019-05-16T06:28:50.604Z,73.60
2019-05-16T06:31:22.092Z,71.30
2019-05-16T06:33:51.556Z,70.60
2019-05-16T06:36:21.019Z,66.50
2019-05-16T06:38:50.428Z,65.20
2019-05-16T06:41:20.071Z,60.50
2019-05-16T06:43:50.742Z,59.00
2019-05-16T06:46:20.362Z,57.50
2019-05-16T06:48:50.587Z,56.70
2019-05-16T06:51:20.286Z,57.80
2019-05-16T06:53:51.504Z,56.60
2019-05-16T06:56:22.403Z,55.30
2019-05-16T06:58:52.279Z,55.10
2019-05-16T07:01:21.665Z,55.10
2019-05-16T07:03:51.047Z,55.90
2019-05-16T07:06:46.012Z,56.70
2019-05-16T07:08:51.588Z,55.60
2019-05-16T07:11:21.088Z,55.80
2019-05-16T07:13:51.977Z,56.50
2019-05-16T07:16:21.544Z,57.10
2019-05-16T07:18:50.926Z,57.80
2019-05-16T07:21:20.539Z,57.90
2019-05-16T07:23:51.159Z,57.50
2019-05-16T07:26:20.767Z,56.60
2019-05-16T07:28:51.583Z,57.70
2019-05-16T07:31:22.550Z,57.20
2019-05-16T07:33:52.239Z,56.00
2019-05-16T07:36:21.633Z,55.60
2019-05-16T07:38:51.157Z,56.70
2019-05-16T07:41:20.672Z,57.00
2019-05-16T07:43:50.688Z,57.50
2019-05-16T07:46:20.848Z,57.80
2019-05-16T07:48:52.570Z,57.30
2019-05-16T07:51:21.763Z,57.30
2019-05-16T07:53:51.162Z,57.40
2019-05-16T07:56:20.783Z,57.70
2019-05-16T07:58:50.768Z,57.70
2019-05-16T08:01:20.585Z,56.20
2019-05-16T08:03:50.858Z,55.40
2019-05-16T08:06:20.678Z,55.50
2019-05-16T08:08:51.064Z,56.00
2019-05-16T08:11:23.673Z,55.90
2019-05-16T08:13:51.996Z,56.40
2019-05-16T08:16:23.160Z,54.30
2019-05-16T08:18:52.584Z,54.60
2019-05-16T08:21:27.464Z,54.90
2019-05-16T08:23:54.040Z,54.70
2019-05-16T08:26:23.519Z,55.50
2019-05-16T08:28:53.086Z,56.60
2019-05-16T08:31:22.508Z,57.30
2019-05-16T08:33:54.419Z,58.50
2019-05-16T08:36:23.031Z,58.00
2019-05-16T08:38:52.368Z,56.70
2019-05-16T08:41:22.388Z,57.30
2019-05-16T08:43:53.214Z,57.80
2019-05-16T08:46:23.232Z,57.70
2019-05-16T08:48:54.255Z,58.60
2019-05-16T08:51:24.249Z,58.90
2019-05-16T08:53:53.533Z,59.80
2019-05-16T08:56:22.991Z,59.60
2019-05-16T08:58:55.051Z,59.50
2019-05-16T09:01:23.500Z,60.40
2019-05-16T09:03:52.898Z,61.70
2019-05-16T09:06:23.253Z,62.10
2019-05-16T09:08:52.857Z,62.40
2019-05-16T09:11:39.314Z,62.50
2019-05-16T09:13:53.439Z,61.10
2019-05-16T09:16:22.984Z,61.00
2019-05-16T09:18:52.405Z,60.60
2019-05-16T09:21:22.027Z,59.50
2019-05-16T09:23:51.384Z,59.70
2019-05-16T09:26:20.750Z,58.70
2019-05-16T09:28:50.066Z,57.80
2019-05-16T09:31:19.483Z,56.50
2019-05-16T09:33:48.968Z,56.80
2019-05-16T09:36:18.431Z,55.20
2019-05-16T09:38:48.710Z,54.50
2019-05-16T09:41:18.294Z,56.10
2019-05-16T09:43:52.381Z,56.30
2019-05-16T09:46:18.906Z,57.00
2019-05-16T09:48:48.367Z,56.10
2019-05-16T09:51:21.075Z,56.00
2019-05-16T09:53:48.970Z,55.80
2019-05-16T09:56:18.363Z,54.90
2019-05-16T09:58:47.756Z,54.60
2019-05-16T10:01:17.612Z,52.60
2019-05-16T10:03:47.909Z,51.20
2019-05-16T10:06:19.181Z,50.10
2019-05-16T10:08:48.804Z,48.80
2019-05-16T10:11:18.414Z,47.70
2019-05-16T10:13:47.935Z,47.10
2019-05-16T10:16:17.372Z,46.40
2019-05-16T10:18:47.618Z,44.60
2019-05-16T10:21:20.412Z,42.70
2019-05-16T10:23:48.243Z,40.20
2019-05-16T10:26:19.530Z,39.50
2019-05-16T10:28:48.685Z,38.70
2019-05-16T10:31:18.125Z,39.00
2019-05-16T10:33:47.943Z,39.30
2019-05-16T10:36:21.395Z,40.60
2019-05-16T10:38:48.797Z,40.80
2019-05-16T10:41:18.132Z,39.80
2019-05-16T10:43:47.648Z,40.50
2019-05-16T10:46:17.859Z,41.40
2019-05-16T10:48:47.345Z,42.20
2019-05-16T10:51:17.110Z,43.60
2019-05-16T10:54:07.227Z,44.10
2019-05-16T10:56:17.973Z,45.20
2019-05-16T10:59:14.726Z,44.60
2019-05-16T11:01:26.632Z,44.00
2019-05-16T11:03:49.712Z,44.10
2019-05-16T11:06:25.610Z,43.10
2019-05-16T11:08:50.548Z,43.00
2019-05-16T11:11:20.159Z,43.10
2019-05-16T11:13:51.254Z,43.90
2019-05-16T11:16:20.792Z,44.40
2019-05-16T11:18:50.310Z,43.70
2019-05-16T11:21:19.640Z,42.20
2019-05-16T11:23:49.039Z,42.70
2019-05-16T11:26:18.496Z,43.70
2019-05-16T11:28:48.896Z,45.40
2019-05-16T11:31:18.669Z,45.90
2019-05-16T11:33:48.232Z,45.80
2019-05-16T11:36:17.652Z,47.30
2019-05-16T11:38:47.665Z,46.90
2019-05-16T11:41:23.665Z,47.00
2019-05-16T11:43:53.218Z,46.60
2019-05-16T11:46:22.708Z,46.10
2019-05-16T11:48:52.092Z,46.60
2019-05-16T11:51:21.459Z,47.20
2019-05-16T11:53:50.860Z,46.30
2019-05-16T11:56:20.254Z,46.30
2019-05-16T11:58:49.842Z,46.70
2019-05-16T12:01:19.541Z,47.30
2019-05-16T12:03:48.871Z,46.90
2019-05-16T12:06:18.232Z,46.10
2019-05-16T12:08:47.630Z,46.30
2019-05-16T12:11:17.939Z,46.10
2019-05-16T12:13:47.846Z,47.00
2019-05-16T12:16:18.742Z,47.20
2019-05-16T12:18:48.696Z,47.20
2019-05-16T12:21:18.305Z,47.30
2019-05-16T12:23:49.678Z,48.00
2019-05-16T12:26:19.295Z,47.50
2019-05-16T12:28:48.761Z,47.60
2019-05-16T12:31:18.262Z,47.40
2019-05-16T12:33:48.108Z,47.40
2019-05-16T12:36:17.775Z,46.70
2019-05-16T12:38:47.348Z,46.50
2019-05-16T12:41:16.958Z,46.10
2019-05-16T12:43:53.083Z,46.60
2019-05-16T12:46:17.526Z,46.30
2019-05-16T12:48:47.419Z,47.40
2019-05-16T12:51:17.308Z,47.60
2019-05-16T12:53:47.764Z,47.50
2019-05-16T12:56:17.789Z,47.80
2019-05-16T12:58:48.298Z,48.60
2019-05-16T13:01:20.821Z,47.60
2019-05-16T13:03:50.779Z,47.60
2019-05-16T13:06:20.546Z,46.20
2019-05-16T13:08:53.273Z,46.90
2019-05-16T13:11:21.402Z,47.50
2019-05-16T13:14:03.363Z,48.40
2019-05-16T13:16:22.707Z,48.10
2019-05-16T13:18:52.191Z,48.90
2019-05-16T13:21:23.074Z,49.70
2019-05-16T13:23:52.885Z,49.90
2019-05-16T13:26:22.407Z,49.70
2019-05-16T13:28:51.960Z,49.80
2019-05-16T13:31:21.349Z,50.00
2019-05-16T13:33:50.704Z,50.20
2019-05-16T13:36:20.459Z,50.80
2019-05-16T13:38:49.834Z,51.30
2019-05-16T13:41:19.196Z,51.60
2019-05-16T13:43:48.505Z,50.50
2019-05-16T13:46:19.689Z,50.30
2019-05-16T13:48:49.035Z,51.30
2019-05-16T13:51:19.024Z,52.20
2019-05-16T13:53:48.591Z,53.30
2019-05-16T13:56:18.055Z,53.80
2019-05-16T13:58:47.625Z,54.60
2019-05-16T14:01:17.332Z,55.60
2019-05-16T14:03:48.209Z,55.10
2019-05-16T14:06:18.659Z,55.50
2019-05-16T14:08:48.246Z,58.80
2019-05-16T14:11:17.630Z,58.70
2019-05-16T14:13:47.163Z,58.60
2019-05-16T14:16:17.971Z,58.50
2019-05-16T14:18:47.576Z,59.00
2019-05-16T14:21:18.086Z,57.20
2019-05-16T14:23:53.234Z,56.90
2019-05-16T14:26:19.306Z,57.00
2019-05-16T14:28:49.283Z,57.20
2019-05-16T14:31:18.865Z,57.60
2019-05-16T14:33:49.472Z,58.10
2019-05-16T14:36:18.824Z,57.70
2019-05-16T14:38:48.323Z,58.50
2019-05-16T14:41:17.709Z,59.10
2019-05-16T14:43:47.261Z,60.10
2019-05-16T14:46:18.442Z,60.80
2019-05-16T14:48:47.755Z,62.50
2019-05-16T14:51:17.923Z,65.00
2019-05-16T14:53:47.731Z,65.90
2019-05-16T14:56:17.083Z,67.30
2019-05-16T14:58:48.500Z,69.50
2019-05-16T15:01:18.676Z,70.90
2019-05-16T15:03:48.088Z,69.90
2019-05-16T15:06:18.227Z,71.40
2019-05-16T15:08:47.855Z,73.70
2019-05-16T15:11:17.987Z,72.40
2019-05-16T15:13:47.749Z,73.80
2019-05-16T15:16:17.139Z,74.50
2019-05-16T15:18:47.402Z,73.30
2019-05-16T15:21:17.809Z,74.40
2019-05-16T15:23:47.458Z,73.50
2019-05-16T15:26:18.226Z,71.20
2019-05-16T15:28:51.245Z,71.00
2019-05-16T15:31:18.956Z,70.90
2019-05-16T15:33:49.085Z,71.70
2019-05-16T15:36:18.548Z,69.80
2019-05-16T15:38:47.909Z,68.50
2019-05-16T15:41:17.610Z,69.30
2019-05-16T15:43:47.214Z,70.90
2019-05-16T15:46:17.254Z,71.80
2019-05-16T15:48:48.719Z,71.50
2019-05-16T15:51:21.135Z,71.90
2019-05-16T15:53:49.486Z,71.60
2019-05-16T15:56:18.874Z,71.60
2019-05-16T15:58:48.230Z,71.10
2019-05-16T16:01:18.993Z,70.30
2019-05-16T16:03:48.351Z,69.10
2019-05-16T16:06:18.012Z,68.40
2019-05-16T16:08:47.797Z,68.20
2019-05-16T16:11:17.405Z,66.00
2019-05-16T16:13:48.368Z,64.30
2019-05-16T16:16:18.065Z,63.80
2019-05-16T16:18:47.435Z,64.00
2019-05-16T16:21:16.940Z,63.90
2019-05-16T16:23:47.815Z,65.40
2019-05-16T16:26:17.925Z,66.20
2019-05-16T16:28:47.627Z,65.40
2019-05-16T16:31:17.018Z,65.60
2019-05-16T16:33:46.453Z,66.70
2019-05-16T16:36:17.083Z,66.40
2019-05-16T16:38:47.647Z,66.70
2019-05-16T16:41:17.249Z,66.40
2019-05-16T16:43:47.743Z,66.00
2019-05-16T16:46:17.328Z,65.90
2019-05-16T16:48:46.705Z,65.40
2019-05-16T16:51:17.656Z,65.70
2019-05-16T16:53:47.380Z,65.50
2019-05-16T16:56:16.999Z,65.40
2019-05-16T16:58:46.803Z,63.40
2019-05-16T17:01:17.377Z,64.10
2019-05-16T17:03:47.069Z,64.80
2019-05-16T17:06:17.758Z,65.40
2019-05-16T17:08:47.620Z,65.50
2019-05-16T17:11:17.079Z,65.80
2019-05-16T17:13:47.270Z,66.60
2019-05-16T17:16:25.341Z,66.90
2019-05-16T17:18:48.017Z,66.80
2019-05-16T17:21:17.542Z,66.50
2019-05-16T17:23:46.914Z,68.10
2019-05-16T17:26:16.305Z,68.20
2019-05-16T17:28:46.723Z,69.20
2019-05-16T17:31:16.941Z,69.60
2019-05-16T17:33:46.516Z,70.40
2019-05-16T17:36:17.236Z,71.20
2019-05-16T17:38:46.838Z,71.70
2019-05-16T17:41:16.783Z,72.20
2019-05-16T17:43:46.927Z,70.70
2019-05-16T17:46:16.460Z,71.10
2019-05-16T17:48:46.793Z,71.10
2019-05-16T17:51:16.872Z,72.10
2019-05-16T17:53:46.312Z,73.30
2019-05-16T17:56:17.125Z,75.10
2019-05-16T17:58:46.851Z,76.90
2019-05-16T18:01:17.279Z,79.20
2019-05-16T18:03:46.769Z,84.30
2019-05-16T18:06:16.962Z,87.20
2019-05-16T18:08:46.921Z,90.00
2019-05-16T18:11:17.731Z,89.80
2019-05-16T18:13:47.397Z,89.00
2019-05-16T18:16:16.794Z,89.10
2019-05-16T18:18:46.867Z,88.70
2019-05-16T18:21:17.022Z,90.00
2019-05-16T18:23:47.183Z,90.40
2019-05-16T18:26:17.339Z,90.70
2019-05-16T18:28:47.071Z,91.10
2019-05-16T18:31:17.261Z,91.10
2019-05-16T18:33:49.453Z,91.30
2019-05-16T18:36:18.916Z,91.60
2019-05-16T18:38:48.534Z,92.10
2019-05-16T18:41:17.892Z,93.00
2019-05-16T18:43:47.400Z,95.00
2019-05-16T18:46:16.791Z,95.80
2019-05-16T18:48:47.180Z,96.60
2019-05-16T18:51:16.704Z,97.80
2019-05-16T18:53:46.582Z,98.60
2019-05-16T18:56:16.758Z,99.90
2019-05-16T18:58:46.748Z,99.90
2019-05-16T19:01:17.609Z,99.90
2019-05-16T19:03:49.108Z,99.90
2019-05-16T19:06:21.556Z,99.90
2019-05-16T19:08:51.417Z,99.90
2019-05-16T19:11:20.798Z,99.90
2019-05-16T19:13:50.263Z,99.90
2019-05-16T19:16:21.417Z,99.90
2019-05-16T19:18:50.779Z,99.90
2019-05-16T19:21:21.239Z,99.90
2019-05-16T19:23:50.706Z,99.90
2019-05-16T19:26:20.267Z,99.90
2019-05-16T19:28:49.645Z,99.90
2019-05-16T19:31:19.062Z,99.90
2019-05-16T19:33:48.925Z,99.90
2019-05-16T19:36:18.591Z,99.90
2019-05-16T19:38:47.905Z,99.90
2019-05-16T19:41:17.268Z,99.90
2019-05-16T19:43:46.727Z,99.90
2019-05-16T19:46:16.203Z,99.90
2019-05-16T19:48:46.552Z,99.90
2019-05-16T19:51:19.305Z,99.90
2019-05-16T19:53:48.668Z,99.90
2019-05-16T19:56:18.117Z,99.90
2019-05-16T19:58:47.768Z,99.90
2019-05-16T20:01:17.128Z,99.90
2019-05-16T20:03:47.159Z,99.90
2019-05-16T20:06:16.986Z,99.90
2019-05-16T20:08:46.430Z,99.90
2019-05-16T20:11:16.822Z,99.90
2019-05-16T20:13:47.348Z,99.90
2019-05-16T20:16:18.469Z,99.90
2019-05-16T20:18:48.370Z,99.90
2019-05-16T20:21:18.555Z,99.90
2019-05-16T20:23:48.125Z,99.90
2019-05-16T20:26:17.533Z,99.90
2019-05-16T20:28:47.559Z,99.90
2019-05-16T20:31:17.223Z,99.90
2019-05-16T20:33:46.985Z,99.90
2019-05-16T20:36:17.402Z,99.90
2019-05-16T20:38:46.923Z,99.90
2019-05-16T20:41:17.131Z,99.90
2019-05-16T20:43:47.487Z,99.90
2019-05-16T20:46:18.515Z,99.90
2019-05-16T20:48:54.136Z,99.90
2019-05-16T20:51:23.545Z,99.90
2019-05-16T20:53:52.951Z,99.90
2019-05-16T20:56:23.880Z,99.90
2019-05-16T21:02:12.462Z,99.90
2019-05-16T21:04:53.107Z,99.90
2019-05-16T21:07:33.653Z,99.90
2019-05-16T21:10:16.786Z,99.90
2019-05-16T21:12:57.597Z,99.90
2019-05-16T21:15:39.038Z,99.90
2019-05-16T21:18:19.582Z,99.90
2019-05-16T21:21:00.958Z,99.90
2019-05-16T21:23:41.682Z,99.90
2019-05-16T21:26:23.120Z,99.90
2019-05-16T21:29:04.427Z,99.90
2019-05-16T21:31:47.162Z,99.90
2019-05-16T21:34:27.375Z,99.90
2019-05-16T21:37:16.608Z,99.90
2019-05-16T21:39:51.335Z,99.90
2019-05-16T21:42:32.736Z,99.90
2019-05-16T21:45:14.288Z,99.90
2019-05-16T21:47:56.803Z,99.90
2019-05-16T21:50:38.048Z,99.90
2019-05-16T21:53:18.813Z,99.90
2019-05-16T21:55:59.484Z,99.90
2019-05-16T21:58:40.270Z,99.90
2019-05-16T22:01:20.876Z,99.90
2019-05-16T22:04:02.349Z,99.90
2019-05-16T22:06:43.830Z,99.90
2019-05-16T22:09:26.456Z,99.90
2019-05-16T22:12:06.948Z,99.90
2019-05-16T22:14:48.115Z,99.90
2019-05-16T22:17:29.422Z,99.90
2019-05-16T22:20:10.805Z,99.90
2019-05-16T22:22:51.410Z,99.90
2019-05-16T22:25:32.846Z,99.90
2019-05-16T22:28:14.157Z,99.90
2019-05-16T22:30:56.405Z,99.90
2019-05-16T22:33:37.716Z,99.90
2019-05-16T22:36:19.188Z,99.90
2019-05-16T22:38:59.870Z,99.90
2019-05-16T22:44:08.644Z,99.90
2019-05-16T22:46:48.562Z,99.90
2019-05-16T22:49:30.051Z,99.90
2019-05-16T22:52:10.864Z,99.90
2019-05-16T22:54:52.139Z,99.90
2019-05-16T22:57:32.829Z,99.90
2019-05-16T23:00:18.349Z,99.90
2019-05-16T23:02:58.953Z,99.90
2019-05-16T23:05:40.383Z,99.90
2019-05-16T23:08:21.316Z,99.90
2019-05-16T23:11:02.632Z,99.90
2019-05-16T23:13:43.251Z,99.90
2019-05-16T23:16:26.501Z,99.90
2019-05-16T23:19:06.586Z,99.90
2019-05-16T23:21:48.140Z,99.90
2019-05-16T23:24:27.560Z,99.90
2019-05-16T23:27:15.994Z,99.90
2019-05-16T23:30:07.295Z,99.90
2019-05-16T23:35:49.425Z,99.90
2019-05-16T23:38:30.508Z,99.90
2019-05-16T23:41:11.876Z,99.90
2019-05-16T23:43:53.333Z,99.90
2019-05-16T23:46:33.852Z,99.90
2019-05-16T23:49:16.654Z,99.90
2019-05-16T23:51:57.086Z,99.90
2019-05-16T23:54:38.540Z,99.90
2019-05-16T23:57:19.190Z,99.90
2019-05-16T23:59:58.673Z,99.90
